createdAt,value
2019-05-25T00:01:12.403Z,79.00
2019-05-25T00:03:42.077Z,78.80
2019-05-25T00:06:11.465Z,78.90
2019-05-25T00:08:43.996Z,78.80
2019-05-25T00:11:13.375Z,79.00
2019-05-25T00:13:43.035Z,80.50
2019-05-25T00:16:12.410Z,81.10
2019-05-25T00:18:41.792Z,81.60
2019-05-25T00:21:14.020Z,81.70
2019-05-25T00:23:42.257Z,81.90
2019-05-25T00:26:11.705Z,82.40
2019-05-25T00:28:41.424Z,82.50
2019-05-25T00:31:10.765Z,83.20
2019-05-25T00:33:40.159Z,82.80
2019-05-25T00:36:09.519Z,82.50
2019-05-25T00:38:38.901Z,82.30
2019-05-25T00:41:08.526Z,82.30
2019-05-25T00:43:37.921Z,83.20
2019-05-25T00:46:07.268Z,83.60
2019-05-25T00:48:37.237Z,83.10
2019-05-25T00:51:06.909Z,83.20
2019-05-25T00:53:36.297Z,82.70
2019-05-25T00:56:05.982Z,82.70
2019-05-25T00:58:35.644Z,83.50
2019-05-25T01:01:05.252Z,83.20
2019-05-25T01:03:34.603Z,83.10
2019-05-25T01:06:04.155Z,82.90
2019-05-25T01:08:33.516Z,82.80
2019-05-25T01:11:02.934Z,82.70
2019-05-25T01:13:32.623Z,83.20
2019-05-25T01:16:02.111Z,83.30
2019-05-25T01:18:31.745Z,84.00
2019-05-25T01:21:01.122Z,84.10
2019-05-25T01:23:30.524Z,84.10
2019-05-25T01:25:59.892Z,84.80
2019-05-25T01:28:29.523Z,84.00
2019-05-25T01:30:58.901Z,84.40
2019-05-25T01:33:28.270Z,84.40
2019-05-25T01:35:57.582Z,84.30
2019-05-25T01:38:27.106Z,84.10
2019-05-25T01:40:56.507Z,84.20
2019-05-25T01:43:25.862Z,84.40
2019-05-25T01:45:55.265Z,84.80
2019-05-25T01:48:24.620Z,85.20
2019-05-25T01:50:54.261Z,85.80
2019-05-25T01:53:23.913Z,85.80
2019-05-25T01:55:53.259Z,85.70
2019-05-25T01:58:22.629Z,86.50
2019-05-25T02:00:51.983Z,86.90
2019-05-25T02:03:21.351Z,87.10
2019-05-25T02:05:50.774Z,87.80
2019-05-25T02:08:20.163Z,88.10
2019-05-25T02:10:49.521Z,88.40
2019-05-25T02:13:18.857Z,89.60
2019-05-25T02:15:48.322Z,89.50
2019-05-25T02:18:17.657Z,90.10
2019-05-25T02:20:47.422Z,89.90
2019-05-25T02:23:17.076Z,90.00
2019-05-25T02:25:46.454Z,90.00
2019-05-25T02:28:16.087Z,90.00
2019-05-25T02:30:45.467Z,89.90
2019-05-25T02:33:14.813Z,89.90
2019-05-25T02:35:44.466Z,89.70
2019-05-25T02:38:14.099Z,89.80
2019-05-25T02:40:43.470Z,89.80
2019-05-25T02:43:12.827Z,90.10
2019-05-25T02:45:42.209Z,90.10
2019-05-25T02:48:11.611Z,90.30
2019-05-25T02:50:41.275Z,90.50
2019-05-25T02:53:10.898Z,90.60
2019-05-25T02:55:40.286Z,90.80
2019-05-25T02:58:09.750Z,90.80
2019-05-25T03:00:39.134Z,90.80
2019-05-25T03:03:08.513Z,90.50
2019-05-25T03:05:37.904Z,90.70
2019-05-25T03:08:08.033Z,90.40
2019-05-25T03:10:37.522Z,90.20
2019-05-25T03:13:07.142Z,90.30
2019-05-25T03:15:36.781Z,90.50
2019-05-25T03:18:06.144Z,90.40
2019-05-25T03:20:35.519Z,90.30
2019-05-25T03:23:04.913Z,90.10
2019-05-25T03:25:48.551Z,90.60
2019-05-25T03:28:05.280Z,90.70
2019-05-25T03:30:35.423Z,91.20
2019-05-25T03:33:05.211Z,91.30
2019-05-25T03:35:34.765Z,91.70
2019-05-25T03:38:04.140Z,92.00
2019-05-25T03:40:33.766Z,92.20
2019-05-25T03:43:03.151Z,92.50
2019-05-25T03:45:32.566Z,93.10
2019-05-25T03:48:01.935Z,93.00
2019-05-25T03:50:31.304Z,93.00
2019-05-25T03:53:00.682Z,93.10
2019-05-25T03:55:30.065Z,93.40
2019-05-25T03:57:59.821Z,93.00
2019-05-25T04:00:34.247Z,93.20
2019-05-25T04:03:04.790Z,93.40
2019-05-25T04:05:34.192Z,93.60
2019-05-25T04:08:03.559Z,93.50
2019-05-25T04:10:33.169Z,93.60
2019-05-25T04:13:02.829Z,93.80
2019-05-25T04:15:32.214Z,93.90
2019-05-25T04:18:01.858Z,93.80
2019-05-25T04:20:31.203Z,93.80
2019-05-25T04:23:00.576Z,93.40
2019-05-25T04:25:29.918Z,93.00
2019-05-25T04:27:59.602Z,92.80
2019-05-25T04:30:29.026Z,92.60
2019-05-25T04:32:58.557Z,92.10
2019-05-25T04:35:27.914Z,91.50
2019-05-25T04:37:57.298Z,91.50
2019-05-25T04:40:26.657Z,91.30
2019-05-25T04:42:56.270Z,91.50
2019-05-25T04:45:25.952Z,91.50
2019-05-25T04:47:55.384Z,91.40
2019-05-25T04:50:24.706Z,91.50
2019-05-25T04:52:54.069Z,91.60
2019-05-25T04:55:23.435Z,91.40
2019-05-25T04:57:52.819Z,91.00
2019-05-25T05:00:22.205Z,90.50
2019-05-25T05:02:51.975Z,90.30
2019-05-25T05:05:21.343Z,89.60
2019-05-25T05:07:50.732Z,89.40
2019-05-25T05:10:20.427Z,88.30
2019-05-25T05:12:50.151Z,88.30
2019-05-25T05:15:19.774Z,88.80
2019-05-25T05:17:49.162Z,89.00
2019-05-25T05:20:18.509Z,88.00
2019-05-25T05:22:47.892Z,87.80
2019-05-25T05:25:17.524Z,88.30
2019-05-25T05:27:46.911Z,87.80
2019-05-25T05:30:16.983Z,88.60
2019-05-25T05:32:46.684Z,89.00
2019-05-25T05:35:16.168Z,88.50
2019-05-25T05:37:46.437Z,83.80
2019-05-25T05:40:15.907Z,82.40
2019-05-25T05:42:48.167Z,82.90
2019-05-25T05:45:17.557Z,79.10
2019-05-25T05:47:48.389Z,80.80
2019-05-25T05:50:17.996Z,79.10
2019-05-25T05:52:48.578Z,74.50
2019-05-25T05:55:21.121Z,73.50
2019-05-25T05:57:50.849Z,71.00
2019-05-25T06:00:20.213Z,69.00
2019-05-25T06:02:49.753Z,69.30
2019-05-25T06:05:19.462Z,69.60
2019-05-25T06:07:49.118Z,68.40
2019-05-25T06:10:18.583Z,68.40
2019-05-25T06:12:48.278Z,66.70
2019-05-25T06:15:18.034Z,66.00
2019-05-25T06:17:47.346Z,65.70
2019-05-25T06:20:17.234Z,64.70
2019-05-25T06:22:46.629Z,65.20
2019-05-25T06:25:16.159Z,63.50
2019-05-25T06:27:45.505Z,61.90
2019-05-25T06:30:14.996Z,63.40
2019-05-25T06:32:44.406Z,61.00
2019-05-25T06:35:14.009Z,58.50
2019-05-25T06:37:43.502Z,58.20
2019-05-25T06:40:13.123Z,56.20
2019-05-25T06:42:42.621Z,54.80
2019-05-25T06:45:12.436Z,54.70
2019-05-25T06:47:41.835Z,55.40
2019-05-25T06:50:11.305Z,56.00
2019-05-25T06:52:40.957Z,56.10
2019-05-25T06:55:10.838Z,56.00
2019-05-25T06:57:43.723Z,55.50
2019-05-25T07:00:12.711Z,55.50
2019-05-25T07:02:42.189Z,55.20
2019-05-25T07:05:11.991Z,55.00
2019-05-25T07:07:41.389Z,54.50
2019-05-25T07:10:10.777Z,54.20
2019-05-25T07:12:40.414Z,54.80
2019-05-25T07:15:10.123Z,54.00
2019-05-25T07:17:39.494Z,56.50
2019-05-25T07:20:09.687Z,56.20
2019-05-25T07:22:39.181Z,55.60
2019-05-25T07:25:09.081Z,56.00
2019-05-25T07:27:39.123Z,56.50
2019-05-25T07:30:08.940Z,57.60
2019-05-25T07:32:38.603Z,57.00
2019-05-25T07:35:08.347Z,57.70
2019-05-25T07:37:37.686Z,57.90
2019-05-25T07:40:07.246Z,58.30
2019-05-25T07:42:36.622Z,57.40
2019-05-25T07:45:06.621Z,58.50
2019-05-25T07:47:36.018Z,56.80
2019-05-25T07:50:06.334Z,56.80
2019-05-25T07:52:35.717Z,57.00
2019-05-25T07:55:05.476Z,57.30
2019-05-25T07:57:34.874Z,56.70
2019-05-25T08:00:04.942Z,56.80
2019-05-25T08:02:34.326Z,58.10
2019-05-25T08:05:03.715Z,58.10
2019-05-25T08:07:33.387Z,57.80
2019-05-25T08:10:02.748Z,56.80
2019-05-25T08:12:32.423Z,56.60
2019-05-25T08:15:01.813Z,57.10
2019-05-25T08:17:31.176Z,56.00
2019-05-25T08:20:00.680Z,55.50
2019-05-25T08:22:30.185Z,55.80
2019-05-25T08:24:59.502Z,56.50
2019-05-25T08:27:29.167Z,55.90
2019-05-25T08:29:58.910Z,55.80
2019-05-25T08:32:28.271Z,56.20
2019-05-25T08:34:57.787Z,56.60
2019-05-25T08:37:27.165Z,56.40
2019-05-25T08:39:56.537Z,58.30
2019-05-25T08:42:25.934Z,57.00
2019-05-25T08:44:55.420Z,56.50
2019-05-25T08:47:25.066Z,58.00
2019-05-25T08:49:55.191Z,57.20
2019-05-25T08:52:24.571Z,56.60
2019-05-25T08:54:53.934Z,56.40
2019-05-25T08:57:23.598Z,56.50
2019-05-25T08:59:53.235Z,57.70
2019-05-25T09:02:22.626Z,59.00
2019-05-25T09:04:52.031Z,56.60
2019-05-25T09:07:21.415Z,56.00
2019-05-25T09:09:51.079Z,56.80
2019-05-25T09:12:20.490Z,56.10
2019-05-25T09:14:50.167Z,56.40
2019-05-25T09:17:19.534Z,55.10
2019-05-25T09:19:48.914Z,53.90
2019-05-25T09:22:18.255Z,54.10
2019-05-25T09:24:47.660Z,55.40
2019-05-25T09:27:17.005Z,53.70
2019-05-25T09:29:46.295Z,54.20
2019-05-25T09:32:15.674Z,54.30
2019-05-25T09:34:45.059Z,54.60
2019-05-25T09:37:14.557Z,54.10
2019-05-25T09:39:43.975Z,54.20
2019-05-25T09:42:13.364Z,54.40
2019-05-25T09:44:43.010Z,53.20
2019-05-25T09:47:12.399Z,51.70
2019-05-25T09:49:41.772Z,52.50
2019-05-25T09:52:11.182Z,53.10
2019-05-25T09:54:40.836Z,53.10
2019-05-25T09:57:10.354Z,51.60
2019-05-25T09:59:39.869Z,52.00
2019-05-25T10:02:09.234Z,51.90
2019-05-25T10:04:38.638Z,52.80
2019-05-25T10:07:08.016Z,52.00
2019-05-25T10:09:39.994Z,50.30
2019-05-25T10:12:08.722Z,51.00
2019-05-25T10:14:38.171Z,51.00
2019-05-25T10:17:07.538Z,52.10
2019-05-25T10:19:36.898Z,52.10
2019-05-25T10:22:06.520Z,50.70
2019-05-25T10:24:35.939Z,51.30
2019-05-25T10:27:06.153Z,52.20
2019-05-25T10:29:37.492Z,52.70
2019-05-25T10:32:06.555Z,51.90
2019-05-25T10:34:35.949Z,51.50
2019-05-25T10:37:05.631Z,52.20
2019-05-25T10:39:35.020Z,52.30
2019-05-25T10:42:04.789Z,51.40
2019-05-25T10:44:34.142Z,51.50
2019-05-25T10:47:03.560Z,51.70
2019-05-25T10:49:32.933Z,51.10
2019-05-25T10:52:02.422Z,49.90
2019-05-25T10:54:31.814Z,50.60
2019-05-25T10:57:01.178Z,49.60
2019-05-25T10:59:30.590Z,49.70
2019-05-25T11:02:00.022Z,50.00
2019-05-25T11:04:29.558Z,49.60
2019-05-25T11:06:59.062Z,50.20
2019-05-25T11:09:28.431Z,51.30
2019-05-25T11:11:57.850Z,50.90
2019-05-25T11:14:27.218Z,49.20
2019-05-25T11:16:56.715Z,48.10
2019-05-25T11:19:26.087Z,48.40
2019-05-25T11:21:56.275Z,46.80
2019-05-25T11:24:25.662Z,46.20
2019-05-25T11:26:55.076Z,44.60
2019-05-25T11:29:24.465Z,45.00
2019-05-25T11:31:58.581Z,45.20
2019-05-25T11:34:24.889Z,46.20
2019-05-25T11:36:54.675Z,46.20
2019-05-25T11:39:24.064Z,46.50
2019-05-25T11:41:53.434Z,47.60
2019-05-25T11:44:23.358Z,49.20
2019-05-25T11:46:53.273Z,49.70
2019-05-25T11:49:23.133Z,50.60
2019-05-25T11:51:52.567Z,50.10
2019-05-25T11:54:21.965Z,49.00
2019-05-25T11:56:51.373Z,48.50
2019-05-25T11:59:21.032Z,48.40
2019-05-25T12:01:50.431Z,48.40
2019-05-25T12:04:19.789Z,50.00
2019-05-25T12:06:49.190Z,51.00
2019-05-25T12:09:18.495Z,51.30
2019-05-25T12:11:48.242Z,51.30
2019-05-25T12:14:17.590Z,52.80
2019-05-25T12:16:47.005Z,53.00
2019-05-25T12:19:16.359Z,53.60
2019-05-25T12:21:46.146Z,53.20
2019-05-25T12:24:15.548Z,52.10
2019-05-25T12:26:44.952Z,52.90
2019-05-25T12:29:14.337Z,53.90
2019-05-25T12:31:49.161Z,52.60
2019-05-25T12:34:22.602Z,52.50
2019-05-25T12:36:52.335Z,51.20
2019-05-25T12:39:21.726Z,44.10
2019-05-25T12:41:51.131Z,38.90
2019-05-25T12:44:20.808Z,35.70
2019-05-25T12:46:50.212Z,35.40
2019-05-25T12:49:19.596Z,36.40
2019-05-25T12:51:49.335Z,38.40
2019-05-25T12:54:18.721Z,38.40
2019-05-25T12:56:48.092Z,38.70
2019-05-25T12:59:17.735Z,40.30
2019-05-25T13:01:47.148Z,43.00
2019-05-25T13:04:16.797Z,43.30
2019-05-25T13:06:46.174Z,32.60
2019-05-25T13:09:15.547Z,39.10
2019-05-25T13:11:44.925Z,34.70
2019-05-25T13:14:15.110Z,36.10
2019-05-25T13:16:44.959Z,35.10
2019-05-25T13:19:14.329Z,35.60
2019-05-25T13:21:43.976Z,35.30
2019-05-25T13:24:13.392Z,34.50
2019-05-25T13:26:42.818Z,34.10
2019-05-25T13:29:12.231Z,33.10
2019-05-25T13:31:41.586Z,34.40
2019-05-25T13:34:11.020Z,29.90
2019-05-25T13:36:40.632Z,31.50
2019-05-25T13:39:10.162Z,30.50
2019-05-25T13:41:40.294Z,30.40
2019-05-25T13:44:09.685Z,31.10
2019-05-25T13:46:38.991Z,33.10
2019-05-25T13:49:08.381Z,32.60
2019-05-25T13:51:37.985Z,33.00
2019-05-25T13:54:07.394Z,33.70
2019-05-25T13:56:37.055Z,35.00
2019-05-25T13:59:06.458Z,36.70
2019-05-25T14:01:36.671Z,38.80
2019-05-25T14:04:06.057Z,42.80
2019-05-25T14:06:35.978Z,46.30
2019-05-25T14:09:06.982Z,48.40
2019-05-25T14:11:36.365Z,49.40
2019-05-25T14:14:05.896Z,50.00
2019-05-25T14:16:35.594Z,51.10
2019-05-25T14:19:05.269Z,51.00
2019-05-25T14:21:34.686Z,51.00
2019-05-25T14:24:04.347Z,51.70
2019-05-25T14:26:33.735Z,53.10
2019-05-25T14:29:03.409Z,55.80
2019-05-25T14:31:45.063Z,57.80
2019-05-25T14:34:04.804Z,59.50
2019-05-25T14:36:34.179Z,61.10
2019-05-25T14:39:03.785Z,63.80
2019-05-25T14:41:33.567Z,65.60
2019-05-25T14:44:02.938Z,67.70
2019-05-25T14:46:32.317Z,69.30
2019-05-25T14:49:01.719Z,70.90
2019-05-25T14:51:31.070Z,70.10
2019-05-25T14:54:00.798Z,70.10
2019-05-25T14:56:30.149Z,71.90
2019-05-25T14:58:59.578Z,73.80
2019-05-25T15:01:28.914Z,74.90
2019-05-25T15:03:58.332Z,76.10
2019-05-25T15:06:27.941Z,76.30
2019-05-25T15:08:57.322Z,76.50
2019-05-25T15:11:26.974Z,78.80
2019-05-25T15:13:56.989Z,81.30
2019-05-25T15:16:26.349Z,84.30
2019-05-25T15:18:55.724Z,84.60
2019-05-25T15:21:25.510Z,87.90
2019-05-25T15:23:55.555Z,88.70
2019-05-25T15:26:24.941Z,90.80
2019-05-25T15:28:54.350Z,92.40
2019-05-25T15:31:23.718Z,92.10
2019-05-25T15:33:53.192Z,92.10
2019-05-25T15:36:22.563Z,92.30
2019-05-25T15:38:52.223Z,94.00
2019-05-25T15:41:21.594Z,93.00
2019-05-25T15:43:51.253Z,94.30
2019-05-25T15:46:20.637Z,96.30
2019-05-25T15:48:50.138Z,96.90
2019-05-25T15:51:19.507Z,98.60
2019-05-25T15:53:48.946Z,97.50
2019-05-25T15:56:18.603Z,97.40
2019-05-25T15:58:48.095Z,98.20
2019-05-25T16:01:17.766Z,97.90
2019-05-25T16:03:47.118Z,95.70
2019-05-25T16:06:16.515Z,95.90
2019-05-25T16:08:45.939Z,94.60
2019-05-25T16:11:15.714Z,94.40
2019-05-25T16:13:45.103Z,94.10
2019-05-25T16:16:14.607Z,93.50
2019-05-25T16:18:43.974Z,92.70
2019-05-25T16:21:13.645Z,92.20
2019-05-25T16:23:43.314Z,90.70
2019-05-25T16:26:12.762Z,92.50
2019-05-25T16:28:42.270Z,91.60
2019-05-25T16:31:11.673Z,91.50
2019-05-25T16:33:41.083Z,91.70
2019-05-25T16:36:10.978Z,92.90
2019-05-25T16:38:40.523Z,91.70
2019-05-25T16:41:09.919Z,92.50
2019-05-25T16:43:39.277Z,91.80
2019-05-25T16:46:08.679Z,92.10
2019-05-25T16:48:38.038Z,92.80
2019-05-25T16:51:07.494Z,91.00
2019-05-25T16:53:37.122Z,92.70
2019-05-25T16:56:06.506Z,92.00
2019-05-25T16:58:35.882Z,91.90
2019-05-25T17:01:05.333Z,92.10
2019-05-25T17:03:34.667Z,93.20
2019-05-25T17:06:04.452Z,91.70
2019-05-25T17:08:34.114Z,92.50
2019-05-25T17:11:03.508Z,91.60
2019-05-25T17:13:33.243Z,91.50
2019-05-25T17:16:03.242Z,91.50
2019-05-25T17:18:32.859Z,91.40
2019-05-25T17:21:02.964Z,91.40
2019-05-25T17:23:32.580Z,90.90
2019-05-25T17:26:02.105Z,92.00
2019-05-25T17:28:31.456Z,92.00
2019-05-25T17:31:00.849Z,92.60
2019-05-25T17:33:44.642Z,92.50
2019-05-25T17:36:01.665Z,91.20
2019-05-25T17:38:31.351Z,91.00
2019-05-25T17:41:00.776Z,90.70
2019-05-25T17:43:30.131Z,91.00
2019-05-25T17:45:59.602Z,90.50
2019-05-25T17:48:28.894Z,88.90
2019-05-25T17:50:58.280Z,88.40
2019-05-25T17:53:27.774Z,88.70
2019-05-25T17:55:58.185Z,87.60
2019-05-25T17:58:27.545Z,87.00
2019-05-25T18:00:56.935Z,88.00
2019-05-25T18:03:26.604Z,88.50
2019-05-25T18:05:55.973Z,88.30
2019-05-25T18:08:25.787Z,88.20
2019-05-25T18:10:55.192Z,89.40
2019-05-25T18:13:24.566Z,88.60
2019-05-25T18:15:54.007Z,89.90
2019-05-25T18:18:23.369Z,89.50
2019-05-25T18:20:53.189Z,89.90
2019-05-25T18:23:23.096Z,89.40
2019-05-25T18:25:52.519Z,90.40
2019-05-25T18:28:21.884Z,89.80
2019-05-25T18:30:51.285Z,88.80
2019-05-25T18:33:20.807Z,90.10
2019-05-25T18:35:50.768Z,89.70
2019-05-25T18:38:21.058Z,90.40
2019-05-25T18:40:50.424Z,90.00
2019-05-25T18:43:20.090Z,90.40
2019-05-25T18:45:49.813Z,90.60
2019-05-25T18:48:19.564Z,91.20
2019-05-25T18:50:49.578Z,91.30
2019-05-25T18:53:18.960Z,92.00
2019-05-25T18:55:48.457Z,92.00
2019-05-25T18:58:17.835Z,92.60
2019-05-25T19:00:47.213Z,92.50
2019-05-25T19:03:16.620Z,92.50
2019-05-25T19:05:45.989Z,92.60
2019-05-25T19:08:15.443Z,93.30
2019-05-25T19:10:45.141Z,94.40
2019-05-25T19:13:14.541Z,94.30
2019-05-25T19:15:43.934Z,94.30
2019-05-25T19:18:13.343Z,95.00
2019-05-25T19:20:43.062Z,95.20
2019-05-25T19:23:12.751Z,95.60
2019-05-25T19:26:16.548Z,95.50
2019-05-25T19:28:56.907Z,95.80
2019-05-25T19:31:26.382Z,95.70
2019-05-25T19:33:56.080Z,95.50
2019-05-25T19:36:25.468Z,95.50
2019-05-25T19:38:54.899Z,95.70
2019-05-25T19:41:24.558Z,95.80
2019-05-25T19:43:54.262Z,95.90
2019-05-25T19:46:23.676Z,96.00
2019-05-25T19:48:53.193Z,96.50
2019-05-25T19:51:22.577Z,96.80
2019-05-25T19:53:51.984Z,96.90
2019-05-25T19:56:21.638Z,97.00
2019-05-25T19:58:51.046Z,97.00
2019-05-25T20:01:20.406Z,97.10
2019-05-25T20:03:50.082Z,96.90
2019-05-25T20:06:19.450Z,97.00
2019-05-25T20:08:48.861Z,97.00
2019-05-25T20:11:18.226Z,97.40
2019-05-25T20:13:47.775Z,97.70
2019-05-25T20:16:17.406Z,97.70
2019-05-25T20:18:47.084Z,98.00
2019-05-25T20:21:16.482Z,98.00
2019-05-25T20:23:45.877Z,98.00
2019-05-25T20:26:15.250Z,98.40
2019-05-25T20:28:44.633Z,98.60
2019-05-25T20:31:14.262Z,99.10
2019-05-25T20:33:43.685Z,99.10
2019-05-25T20:36:13.353Z,99.10
2019-05-25T20:38:43.039Z,99.20
2019-05-25T20:41:12.405Z,99.10
2019-05-25T20:43:41.815Z,98.90
2019-05-25T20:46:11.529Z,98.60
2019-05-25T20:48:41.047Z,98.70
2019-05-25T20:51:11.314Z,98.50
2019-05-25T20:53:40.904Z,98.20
2019-05-25T20:56:10.286Z,99.00
2019-05-25T20:58:39.935Z,99.40
2019-05-25T21:01:09.595Z,99.60
2019-05-25T21:03:38.999Z,99.80
2019-05-25T21:06:08.654Z,99.80
2019-05-25T21:08:38.242Z,99.60
2019-05-25T21:11:07.975Z,99.20
2019-05-25T21:13:37.366Z,99.00
2019-05-25T21:16:07.287Z,99.00
2019-05-25T21:18:36.687Z,99.30
2019-05-25T21:21:06.165Z,99.20
2019-05-25T21:23:35.545Z,99.20
2019-05-25T21:26:04.949Z,98.90
2019-05-25T21:28:34.597Z,99.20
2019-05-25T21:31:04.251Z,99.60
2019-05-25T21:33:33.945Z,99.90
2019-05-25T21:36:08.813Z,99.20
2019-05-25T21:38:34.932Z,98.80
2019-05-25T21:41:04.359Z,98.80
2019-05-25T21:43:33.793Z,98.80
2019-05-25T21:46:03.162Z,98.80
2019-05-25T21:48:32.518Z,99.20
2019-05-25T21:51:01.943Z,99.40
2019-05-25T21:53:31.332Z,99.80
2019-05-25T21:56:00.706Z,99.90
2019-05-25T21:58:30.596Z,99.90
2019-05-25T22:01:00.690Z,99.90
2019-05-25T22:03:30.054Z,99.90
2019-05-25T22:05:59.553Z,99.90
2019-05-25T22:08:28.916Z,99.90
2019-05-25T22:10:58.375Z,99.90
2019-05-25T22:13:28.823Z,99.90
2019-05-25T22:15:58.838Z,99.90
2019-05-25T22:18:28.193Z,99.90
2019-05-25T22:20:57.861Z,99.90
2019-05-25T22:23:27.249Z,99.90
2019-05-25T22:25:56.655Z,99.90
2019-05-25T22:28:26.318Z,99.90
2019-05-25T22:30:55.711Z,99.90
2019-05-25T22:33:25.131Z,99.90
2019-05-25T22:35:54.577Z,99.90
2019-05-25T22:38:24.271Z,99.90
2019-05-25T22:40:53.941Z,99.90
2019-05-25T22:43:23.422Z,99.90
2019-05-25T22:45:52.816Z,99.90
2019-05-25T22:48:22.455Z,99.90
2019-05-25T22:50:51.850Z,99.90
2019-05-25T22:53:21.482Z,99.90
2019-05-25T22:55:50.878Z,99.90
2019-05-25T22:58:20.268Z,99.90
2019-05-25T23:00:49.969Z,99.90
2019-05-25T23:03:19.339Z,99.90
2019-05-25T23:05:48.725Z,99.90
2019-05-25T23:08:18.092Z,99.90
2019-05-25T23:10:47.495Z,99.90
2019-05-25T23:13:17.142Z,99.90
2019-05-25T23:15:46.913Z,99.90
2019-05-25T23:18:16.286Z,99.90
2019-05-25T23:20:46.760Z,99.90
2019-05-25T23:23:16.122Z,99.90
2019-05-25T23:25:45.514Z,99.90
2019-05-25T23:28:14.884Z,99.90
2019-05-25T23:30:44.690Z,99.90
2019-05-25T23:33:14.318Z,99.90
2019-05-25T23:35:44.404Z,99.90
2019-05-25T23:38:13.764Z,99.90
2019-05-25T23:40:43.153Z,99.90
2019-05-25T23:43:12.856Z,99.90
2019-05-25T23:45:42.259Z,99.90
2019-05-25T23:48:11.734Z,99.90
2019-05-25T23:50:41.225Z,99.90
2019-05-25T23:53:10.621Z,99.90
2019-05-25T23:55:40.300Z,99.90
2019-05-25T23:58:09.668Z,99.90
